Healdton, OK (73438)

11:25 PM CDT on October 30, 2014 (GMT -0500)
Fox Volunteer Fire Department | Change Station
CLOSE
Current Station
Personal Weather Station
Location: Fox, OK
Elevation: 988 ft
Nearby Weather Stations
Active Advisory: Freeze Watch

Elev 988 ft 34.36 °N, 97.49 °W | Updated 7 seconds ago

Clear
Clear
61.6 °F
Feels Like 61.6 °F
N
2.0
Wind Variable Wind from NNW
Gusts 2.0 mph

Today
High -- | Low -- °F
--% Chance of Precip.
Yesterday
High -- | Low -- °F
Precip. -- in
7:47 AM 6:38 PM
Waxing Crescent, 51% visible
Pressure 30.19 in
Visibility 10.0 miles
Clouds Clear
Dew Point 42 °F
Humidity 48%
Rainfall 0.00 in
Snow Depth Not available.
UV 0 out of 12
Pollen 4.10 out of 12
Air Quality Not available.
Flu Activity Not available.
METAR K1F0 310415Z AUTO 00000KT 10SM CLR 13/04 A3019 RMK AO2

More Conditions Fewer Conditions

Pressure 30.19 in
Visibility 10.0 miles
Clouds Clear
Dew Point 42 °F
Humidity 48%
Rainfall 0.00 in
Snow Depth Not available.
UV 0 out of 12
Pollen 4.10 out of 12
Air Quality Not available.
Flu Activity Not available.
METAR K1F0 310415Z AUTO 00000KT 10SM CLR 13/04 A3019 RMK AO2

More Conditions Fewer Conditions

10-Day Weather Forecast

Almanac

Astronomy

Oct. 30, 2014 Rise Set
Actual Time
Civil Twilight
Nautical Twilight
Astronomical Twilight
Moon
Length of Visible Light
Length of Day
Tomorrow will be .
, % of the Moon is Illuminated

Today's Extremes

State Highs State Lows

Community

WunderPhotos

Upload Photos

1,766,565 photos uploaded!

WunderBlogs® & News

Nearby

Air Quality

  Air Quality AQ Index Pollutant
Not available.

Snow Depth

Station Depth Elevation

Earthquake Activity

City Distance Mag. Time & Date
Minimum magnitude displayed is 2.5.

Coastal Water Temperatures

Place Temperature

Nearby Weather Stations